createdAt,value
2018-03-02T00:00:14.060Z,0
2018-03-02T00:00:46.079Z,0
2018-03-02T00:01:18.066Z,0
2018-03-02T00:01:50.084Z,0
2018-03-02T00:02:22.119Z,0
2018-03-02T00:02:54.719Z,0
2018-03-02T00:03:26.767Z,0
2018-03-02T00:03:58.783Z,0
2018-03-02T00:04:30.790Z,0
2018-03-02T00:05:02.845Z,0
2018-03-02T00:05:34.865Z,0
2018-03-02T00:06:06.913Z,0
2018-03-02T00:06:38.917Z,0
2018-03-02T00:07:10.942Z,0
2018-03-02T00:07:43.063Z,0
2018-03-02T00:08:15.049Z,0
2018-03-02T00:08:47.058Z,0
2018-03-02T00:09:19.080Z,0
2018-03-02T00:09:51.105Z,0
2018-03-02T00:10:23.135Z,0
2018-03-02T00:10:55.162Z,0
2018-03-02T00:11:27.185Z,0
2018-03-02T00:11:59.214Z,0
2018-03-02T00:12:31.264Z,0
2018-03-02T00:13:03.280Z,0
2018-03-02T00:13:35.298Z,0
2018-03-02T00:14:07.937Z,0
2018-03-02T00:14:39.967Z,0
2018-03-02T00:15:12.005Z,0
2018-03-02T00:15:44.055Z,0
2018-03-02T00:16:16.094Z,0
2018-03-02T00:16:48.117Z,0
2018-03-02T00:17:20.166Z,0
2018-03-02T00:17:52.177Z,0
2018-03-02T00:18:24.175Z,0
2018-03-02T00:18:56.179Z,0
2018-03-02T00:19:28.212Z,0
2018-03-02T00:20:00.285Z,0
2018-03-02T00:20:32.270Z,0
2018-03-02T00:21:04.263Z,0
2018-03-02T00:21:36.286Z,0
2018-03-02T00:22:08.320Z,0
2018-03-02T00:22:40.392Z,0
2018-03-02T00:23:12.457Z,0
2018-03-02T00:23:45.332Z,0
2018-03-02T00:24:17.358Z,0
2018-03-02T00:24:49.462Z,0
2018-03-02T00:25:21.448Z,0
2018-03-02T00:25:53.475Z,0
2018-03-02T00:26:25.519Z,0
2018-03-02T00:26:57.529Z,0
2018-03-02T00:27:29.550Z,0
2018-03-02T00:28:01.631Z,0
2018-03-02T00:28:33.622Z,0
2018-03-02T00:29:05.618Z,0
2018-03-02T00:29:37.632Z,0
2018-03-02T00:30:09.681Z,0
2018-03-02T00:30:41.734Z,0
2018-03-02T00:31:14.348Z,0
2018-03-02T00:31:46.424Z,0
2018-03-02T00:32:19.311Z,0
2018-03-02T00:32:51.266Z,0
2018-03-02T00:33:23.305Z,0
2018-03-02T00:33:55.268Z,0
2018-03-02T00:34:27.292Z,0
2018-03-02T00:34:59.283Z,0
2018-03-02T00:35:31.291Z,0
2018-03-02T00:36:03.379Z,0
2018-03-02T00:36:35.416Z,0
2018-03-02T00:37:07.461Z,0
2018-03-02T00:37:39.510Z,0
2018-03-02T00:38:11.530Z,0
2018-03-02T00:38:43.547Z,0
2018-03-02T00:39:15.572Z,0
2018-03-02T00:39:47.623Z,0
2018-03-02T00:40:19.643Z,0
2018-03-02T00:40:51.740Z,0
2018-03-02T00:41:23.766Z,0
2018-03-02T00:41:55.743Z,0
2018-03-02T00:42:27.776Z,0
2018-03-02T00:42:59.818Z,0
2018-03-02T00:43:31.848Z,0
2018-03-02T00:44:03.878Z,0
2018-03-02T00:44:35.946Z,0
2018-03-02T00:45:07.942Z,0
2018-03-02T00:45:39.975Z,0
2018-03-02T00:46:12.049Z,0
2018-03-02T00:46:44.067Z,0
2018-03-02T00:47:16.017Z,0
2018-03-02T00:47:48.029Z,0
2018-03-02T00:48:20.063Z,0
2018-03-02T00:48:52.097Z,0
2018-03-02T00:49:24.203Z,0
2018-03-02T00:49:56.223Z,0
2018-03-02T00:50:28.260Z,0
2018-03-02T00:51:00.266Z,0
2018-03-02T00:51:32.412Z,0
2018-03-02T00:52:05.257Z,0
2018-03-02T00:52:37.266Z,0
2018-03-02T00:53:09.298Z,0
2018-03-02T00:53:41.313Z,0
2018-03-02T00:54:13.439Z,0
2018-03-02T00:54:45.435Z,0
2018-03-02T00:55:17.441Z,0
2018-03-02T00:55:49.465Z,0
2018-03-02T00:56:21.521Z,0
2018-03-02T00:56:53.521Z,0
2018-03-02T00:57:25.586Z,0
2018-03-02T00:57:57.614Z,0
2018-03-02T00:58:29.619Z,0
2018-03-02T00:59:01.620Z,0
2018-03-02T00:59:34.334Z,0
2018-03-02T01:00:06.379Z,0
2018-03-02T01:00:38.463Z,0
2018-03-02T01:01:10.487Z,0
2018-03-02T01:01:42.601Z,0
2018-03-02T01:02:14.633Z,0
2018-03-02T01:02:46.617Z,0
2018-03-02T01:03:18.669Z,0
2018-03-02T01:03:50.673Z,0
2018-03-02T01:04:22.708Z,0
2018-03-02T01:04:54.809Z,0
2018-03-02T01:05:26.833Z,0
2018-03-02T01:05:58.838Z,0
2018-03-02T01:06:30.889Z,0
2018-03-02T01:07:02.949Z,0
2018-03-02T01:07:34.930Z,0
2018-03-02T01:08:06.915Z,0
2018-03-02T01:08:38.942Z,0
2018-03-02T01:09:10.987Z,0
2018-03-02T01:09:43.001Z,0
2018-03-02T01:10:15.042Z,0
2018-03-02T01:10:47.090Z,0
2018-03-02T01:11:19.125Z,0
2018-03-02T01:11:51.133Z,0
2018-03-02T01:12:23.208Z,0
2018-03-02T01:12:55.218Z,0
2018-03-02T01:13:27.240Z,0
2018-03-02T01:13:59.305Z,0
2018-03-02T01:14:31.287Z,0
2018-03-02T01:15:03.271Z,0
2018-03-02T01:15:35.285Z,0
2018-03-02T01:16:07.273Z,0
2018-03-02T01:16:39.311Z,0
2018-03-02T01:17:11.325Z,0
2018-03-02T01:17:43.365Z,0
2018-03-02T01:18:15.366Z,0
2018-03-02T01:18:47.418Z,0
2018-03-02T01:19:19.410Z,0
2018-03-02T01:19:51.504Z,0
2018-03-02T01:20:23.546Z,0
2018-03-02T01:20:55.578Z,0
2018-03-02T01:21:27.624Z,0
2018-03-02T01:21:59.623Z,0
2018-03-02T01:22:31.672Z,0
2018-03-02T01:23:03.679Z,0
2018-03-02T01:23:35.665Z,0
2018-03-02T01:24:07.672Z,0
2018-03-02T01:24:39.647Z,0
2018-03-02T01:25:11.663Z,0
2018-03-02T01:25:43.710Z,0
2018-03-02T01:26:15.797Z,0
2018-03-02T01:26:47.858Z,0
2018-03-02T01:27:19.908Z,0
2018-03-02T01:27:51.929Z,0
2018-03-02T01:28:23.919Z,0
2018-03-02T01:28:55.942Z,0
2018-03-02T01:29:27.953Z,0
2018-03-02T01:30:00.016Z,0
2018-03-02T01:30:32.073Z,0
2018-03-02T01:31:04.092Z,0
2018-03-02T01:31:36.136Z,0
2018-03-02T01:32:08.186Z,0
2018-03-02T01:32:40.233Z,0
2018-03-02T01:33:12.239Z,0
2018-03-02T01:33:44.292Z,0
2018-03-02T01:34:16.431Z,0
2018-03-02T01:34:48.444Z,0
2018-03-02T01:35:20.468Z,0
2018-03-02T01:35:52.473Z,0
2018-03-02T01:36:24.456Z,0
2018-03-02T01:36:56.528Z,0
2018-03-02T01:37:28.525Z,0
2018-03-02T01:38:00.533Z,0
2018-03-02T01:38:32.563Z,0
2018-03-02T01:39:04.590Z,0
2018-03-02T01:39:36.571Z,0
2018-03-02T01:40:08.753Z,0
2018-03-02T01:40:41.680Z,0
2018-03-02T01:41:13.703Z,0
2018-03-02T01:41:45.726Z,0
2018-03-02T01:42:18.357Z,0
2018-03-02T01:42:50.413Z,0
2018-03-02T01:43:22.446Z,0
2018-03-02T01:43:54.473Z,0
2018-03-02T01:44:26.512Z,0
2018-03-02T01:44:58.538Z,0
2018-03-02T01:45:30.545Z,0
2018-03-02T01:46:02.579Z,0
2018-03-02T01:46:34.573Z,0
2018-03-02T01:47:06.631Z,0
2018-03-02T01:47:38.642Z,0
2018-03-02T01:48:10.643Z,0
2018-03-02T01:48:42.682Z,0
2018-03-02T01:49:14.728Z,0
2018-03-02T01:49:46.781Z,0
2018-03-02T01:50:18.847Z,0
2018-03-02T01:50:50.860Z,0
2018-03-02T01:51:22.853Z,0
2018-03-02T01:51:54.920Z,0
2018-03-02T01:52:26.944Z,0
2018-03-02T01:52:58.968Z,0
2018-03-02T01:53:31.003Z,0
2018-03-02T01:54:03.067Z,0
2018-03-02T01:54:35.036Z,0
2018-03-02T01:55:07.068Z,0
2018-03-02T01:55:39.092Z,0
2018-03-02T01:56:11.104Z,0
2018-03-02T01:56:43.164Z,0
2018-03-02T01:57:15.169Z,0
2018-03-02T01:57:47.218Z,0
2018-03-02T01:58:19.263Z,0
2018-03-02T01:58:51.315Z,0
2018-03-02T01:59:23.480Z,0
2018-03-02T01:59:55.606Z,0
2018-03-02T02:00:27.633Z,0
2018-03-02T02:00:59.660Z,0
2018-03-02T02:01:31.680Z,0
2018-03-02T02:02:03.752Z,0
2018-03-02T02:02:35.783Z,0
2018-03-02T02:03:07.801Z,0
2018-03-02T02:03:39.870Z,0
2018-03-02T02:04:11.970Z,0
2018-03-02T02:04:43.996Z,0
2018-03-02T02:05:16.040Z,0
2018-03-02T02:05:48.045Z,0
2018-03-02T02:06:20.071Z,0
2018-03-02T02:06:52.097Z,0
2018-03-02T02:07:24.098Z,0
2018-03-02T02:07:56.134Z,0
2018-03-02T02:08:28.138Z,0
2018-03-02T02:09:00.144Z,0
2018-03-02T02:09:32.120Z,0
2018-03-02T02:10:04.229Z,0
2018-03-02T02:10:36.267Z,0
2018-03-02T02:11:08.307Z,0
2018-03-02T02:11:40.344Z,0
2018-03-02T02:12:12.376Z,0
2018-03-02T02:12:44.404Z,0
2018-03-02T02:13:16.438Z,0
2018-03-02T02:13:48.574Z,0
2018-03-02T02:14:20.604Z,0
2018-03-02T02:14:52.631Z,0
2018-03-02T02:15:24.765Z,0
2018-03-02T02:15:56.764Z,0
2018-03-02T02:16:28.799Z,0
2018-03-02T02:17:00.827Z,0
2018-03-02T02:17:32.864Z,0
2018-03-02T02:18:04.881Z,0
2018-03-02T02:18:36.906Z,0
2018-03-02T02:19:08.953Z,0
2018-03-02T02:19:41.000Z,0
2018-03-02T02:20:12.995Z,0
2018-03-02T02:20:45.005Z,0
2018-03-02T02:21:17.007Z,0
2018-03-02T02:21:49.012Z,0
2018-03-02T02:22:20.988Z,0
2018-03-02T02:22:53.002Z,0
2018-03-02T02:23:25.030Z,0
2018-03-02T02:23:57.086Z,0
2018-03-02T02:24:29.117Z,0
2018-03-02T02:25:01.156Z,0
2018-03-02T02:25:33.142Z,0
2018-03-02T02:26:05.155Z,0
2018-03-02T02:26:37.194Z,0
2018-03-02T02:27:09.210Z,0
2018-03-02T02:27:41.245Z,0
2018-03-02T02:28:13.238Z,0
2018-03-02T02:28:45.273Z,0
2018-03-02T02:29:17.303Z,0
2018-03-02T02:29:49.349Z,0
2018-03-02T02:30:21.504Z,0
2018-03-02T02:30:53.570Z,0
2018-03-02T02:31:25.620Z,0
2018-03-02T02:31:57.701Z,0
2018-03-02T02:32:29.719Z,0
2018-03-02T02:33:01.745Z,0
2018-03-02T02:33:33.792Z,0
2018-03-02T02:34:05.818Z,0
2018-03-02T02:34:37.865Z,0
2018-03-02T02:35:10.793Z,0
2018-03-02T02:35:42.830Z,0
2018-03-02T02:36:14.814Z,0
2018-03-02T02:36:46.825Z,0
2018-03-02T02:37:18.872Z,0
2018-03-02T02:37:50.924Z,0
2018-03-02T02:38:22.942Z,0
2018-03-02T02:38:54.987Z,0
2018-03-02T02:39:27.020Z,0
2018-03-02T02:39:59.055Z,0
2018-03-02T02:40:31.078Z,0
2018-03-02T02:41:03.113Z,0
2018-03-02T02:41:35.122Z,0
2018-03-02T02:42:07.153Z,0
2018-03-02T02:42:39.144Z,0
2018-03-02T02:43:11.163Z,0
2018-03-02T02:43:43.213Z,0
2018-03-02T02:44:15.369Z,0
2018-03-02T02:44:47.389Z,0
2018-03-02T02:45:19.410Z,0
2018-03-02T02:45:51.464Z,0
2018-03-02T02:46:23.519Z,0
2018-03-02T02:46:56.385Z,0
2018-03-02T02:47:28.429Z,0
2018-03-02T02:48:00.447Z,0
2018-03-02T02:48:32.541Z,0
2018-03-02T02:49:04.577Z,0
2018-03-02T02:49:36.574Z,0
2018-03-02T02:50:08.628Z,0
2018-03-02T02:50:40.652Z,0
2018-03-02T02:51:12.687Z,0
2018-03-02T02:51:44.718Z,0
2018-03-02T02:52:16.728Z,0
2018-03-02T02:52:48.734Z,0
2018-03-02T02:53:20.762Z,0
2018-03-02T02:53:52.791Z,0
2018-03-02T02:54:24.839Z,0
2018-03-02T02:54:56.851Z,0
2018-03-02T02:55:28.853Z,0
2018-03-02T02:56:00.865Z,0
2018-03-02T02:56:32.860Z,0
2018-03-02T02:57:04.910Z,0
2018-03-02T02:57:36.928Z,0
2018-03-02T02:58:08.929Z,0
2018-03-02T02:58:40.963Z,0
2018-03-02T02:59:12.998Z,0
2018-03-02T02:59:45.015Z,0
2018-03-02T03:00:17.036Z,0
2018-03-02T03:00:49.094Z,0
2018-03-02T03:01:21.109Z,0
2018-03-02T03:01:53.130Z,0
2018-03-02T03:02:25.163Z,0
2018-03-02T03:02:57.180Z,0
2018-03-02T03:03:29.222Z,0
2018-03-02T03:04:01.344Z,0
2018-03-02T03:04:33.477Z,0
2018-03-02T03:05:05.461Z,0
2018-03-02T03:05:37.499Z,0
2018-03-02T03:06:09.519Z,0
2018-03-02T03:06:41.545Z,0
2018-03-02T03:07:13.546Z,0
2018-03-02T03:07:45.622Z,0
2018-03-02T03:08:17.618Z,0
2018-03-02T03:08:49.633Z,0
2018-03-02T03:09:21.662Z,0
2018-03-02T03:09:53.689Z,0
2018-03-02T03:10:25.701Z,0
2018-03-02T03:10:57.720Z,0
2018-03-02T03:11:29.764Z,0
2018-03-02T03:12:01.892Z,0
2018-03-02T03:12:33.915Z,0
2018-03-02T03:13:05.910Z,0
2018-03-02T03:13:37.902Z,0
2018-03-02T03:14:09.945Z,0
2018-03-02T03:14:41.973Z,0
2018-03-02T03:15:14.052Z,0
2018-03-02T03:15:46.092Z,0
2018-03-02T03:16:18.102Z,0
2018-03-02T03:16:50.158Z,0
2018-03-02T03:17:22.187Z,0
2018-03-02T03:17:54.236Z,0
2018-03-02T03:18:26.255Z,0
2018-03-02T03:18:58.273Z,0
2018-03-02T03:19:30.320Z,0
2018-03-02T03:20:02.329Z,0
2018-03-02T03:20:34.374Z,0
2018-03-02T03:21:06.379Z,0
2018-03-02T03:21:38.498Z,0
2018-03-02T03:22:10.507Z,0
2018-03-02T03:22:42.520Z,0
2018-03-02T03:23:14.695Z,0
2018-03-02T03:23:46.810Z,0
2018-03-02T03:24:18.812Z,0
2018-03-02T03:24:50.836Z,0
2018-03-02T03:25:22.854Z,0
2018-03-02T03:25:54.895Z,0
2018-03-02T03:26:26.879Z,0
2018-03-02T03:26:58.886Z,0
2018-03-02T03:27:30.919Z,0
2018-03-02T03:28:02.931Z,0
2018-03-02T03:28:34.946Z,0
2018-03-02T03:29:06.983Z,0
2018-03-02T03:29:39.005Z,0
2018-03-02T03:30:11.053Z,0
2018-03-02T03:30:43.103Z,0
2018-03-02T03:31:15.113Z,0
2018-03-02T03:31:47.250Z,0
2018-03-02T03:32:19.285Z,0
2018-03-02T03:32:51.285Z,0
2018-03-02T03:33:23.334Z,0
2018-03-02T03:33:55.342Z,0
2018-03-02T03:34:27.534Z,0
2018-03-02T03:34:59.607Z,0
2018-03-02T03:35:31.594Z,0
2018-03-02T03:36:03.631Z,0
2018-03-02T03:36:35.655Z,0
2018-03-02T03:37:08.297Z,0
2018-03-02T03:37:40.322Z,0
2018-03-02T03:38:12.374Z,0
2018-03-02T03:38:44.397Z,0
2018-03-02T03:39:17.327Z,0
2018-03-02T03:39:49.342Z,0
2018-03-02T03:40:21.492Z,0
2018-03-02T03:40:53.608Z,0
2018-03-02T03:41:25.665Z,0
2018-03-02T03:41:57.676Z,0
2018-03-02T03:42:29.676Z,0
2018-03-02T03:43:01.689Z,0
2018-03-02T03:43:33.736Z,0
2018-03-02T03:44:05.761Z,0
2018-03-02T03:44:37.792Z,0
2018-03-02T03:45:09.794Z,0
2018-03-02T03:45:41.822Z,0
2018-03-02T03:46:13.939Z,0
2018-03-02T03:46:45.921Z,0
2018-03-02T03:47:17.953Z,0
2018-03-02T03:47:49.946Z,0
2018-03-02T03:48:22.004Z,0
2018-03-02T03:48:54.075Z,0
2018-03-02T03:49:26.174Z,0
2018-03-02T03:49:58.292Z,0
2018-03-02T03:50:30.315Z,0
2018-03-02T03:51:02.293Z,0
2018-03-02T03:51:34.270Z,0
2018-03-02T03:52:06.288Z,0
2018-03-02T03:52:38.327Z,0
2018-03-02T03:53:10.390Z,0
2018-03-02T03:53:42.458Z,0
2018-03-02T03:54:14.518Z,0
2018-03-02T03:54:46.554Z,0
2018-03-02T03:55:18.556Z,0
2018-03-02T03:55:50.666Z,0
2018-03-02T03:56:22.832Z,0
2018-03-02T03:56:54.934Z,0
2018-03-02T03:57:26.924Z,0
2018-03-02T03:57:58.956Z,0
2018-03-02T03:58:30.963Z,0
2018-03-02T03:59:02.981Z,0
2018-03-02T03:59:34.992Z,0
2018-03-02T04:00:07.507Z,0
2018-03-02T04:00:39.553Z,0
2018-03-02T04:01:11.567Z,0
2018-03-02T04:01:43.670Z,0
2018-03-02T04:02:15.792Z,0
2018-03-02T04:02:47.809Z,0
2018-03-02T04:03:19.853Z,0
2018-03-02T04:03:51.878Z,0
2018-03-02T04:04:23.970Z,0
2018-03-02T04:04:55.998Z,0
2018-03-02T04:05:28.010Z,0
2018-03-02T04:06:00.084Z,0
2018-03-02T04:06:32.102Z,0
2018-03-02T04:07:04.100Z,0
2018-03-02T04:07:36.306Z,0
2018-03-02T04:08:08.261Z,0
2018-03-02T04:08:40.312Z,0
2018-03-02T04:09:12.314Z,0
2018-03-02T04:09:45.219Z,0
2018-03-02T04:10:17.314Z,0
2018-03-02T04:10:49.426Z,0
2018-03-02T04:11:21.472Z,0
2018-03-02T04:11:53.560Z,0
2018-03-02T04:12:25.630Z,0
2018-03-02T04:12:57.651Z,0
2018-03-02T04:13:29.704Z,0
2018-03-02T04:14:01.715Z,0
2018-03-02T04:14:33.745Z,0
2018-03-02T04:15:05.773Z,0
2018-03-02T04:15:37.811Z,0
2018-03-02T04:16:09.857Z,0
2018-03-02T04:16:41.908Z,0
2018-03-02T04:17:13.897Z,0
2018-03-02T04:17:45.954Z,0
2018-03-02T04:18:17.992Z,0
2018-03-02T04:18:50.003Z,0
2018-03-02T04:19:22.049Z,0
2018-03-02T04:19:54.074Z,0
2018-03-02T04:20:26.101Z,0
2018-03-02T04:20:58.154Z,0
2018-03-02T04:21:30.146Z,0
2018-03-02T04:22:02.174Z,0
2018-03-02T04:22:34.193Z,0
2018-03-02T04:23:06.216Z,0
2018-03-02T04:23:39.267Z,0
2018-03-02T04:24:11.281Z,0
2018-03-02T04:24:43.339Z,0
2018-03-02T04:25:15.362Z,0
2018-03-02T04:25:47.404Z,0
2018-03-02T04:26:19.361Z,0
2018-03-02T04:26:51.424Z,0
2018-03-02T04:27:23.470Z,0
2018-03-02T04:27:55.482Z,0
2018-03-02T04:28:27.501Z,0
2018-03-02T04:28:59.508Z,0
2018-03-02T04:29:31.525Z,0
2018-03-02T04:30:03.653Z,0
2018-03-02T04:30:35.676Z,0
2018-03-02T04:31:07.710Z,0
2018-03-02T04:31:39.727Z,0
2018-03-02T04:32:11.737Z,0
2018-03-02T04:32:43.737Z,0
2018-03-02T04:33:15.785Z,0
2018-03-02T04:33:47.800Z,0
2018-03-02T04:34:19.832Z,0
2018-03-02T04:34:51.885Z,0
2018-03-02T04:35:23.866Z,0
2018-03-02T04:35:55.886Z,0
2018-03-02T04:36:27.927Z,0
2018-03-02T04:36:59.982Z,0
2018-03-02T04:37:32.038Z,0
2018-03-02T04:38:04.077Z,0
2018-03-02T04:38:36.118Z,0
2018-03-02T04:39:08.139Z,0
2018-03-02T04:39:40.117Z,0
2018-03-02T04:40:12.112Z,0
2018-03-02T04:40:44.233Z,0
2018-03-02T04:41:16.274Z,0
2018-03-02T04:41:48.288Z,0
2018-03-02T04:42:20.299Z,0
2018-03-02T04:42:52.346Z,0
2018-03-02T04:43:24.425Z,0
2018-03-02T04:43:56.469Z,0
2018-03-02T04:44:31.409Z,0
2018-03-02T04:45:03.455Z,0
2018-03-02T04:45:35.531Z,0
2018-03-02T04:46:07.554Z,0
2018-03-02T04:46:39.599Z,0
2018-03-02T04:47:11.635Z,0
2018-03-02T04:47:43.642Z,0
2018-03-02T04:48:15.688Z,0
2018-03-02T04:48:47.719Z,0
2018-03-02T04:49:19.750Z,0
2018-03-02T04:49:51.757Z,0
2018-03-02T04:50:23.794Z,0
2018-03-02T04:50:55.830Z,0
2018-03-02T04:51:27.949Z,0
2018-03-02T04:52:00.002Z,0
2018-03-02T04:52:32.034Z,0
2018-03-02T04:53:04.075Z,0
2018-03-02T04:53:36.120Z,0
2018-03-02T04:54:08.150Z,0
2018-03-02T04:54:40.168Z,0
2018-03-02T04:55:12.194Z,0
2018-03-02T04:55:44.235Z,0
2018-03-02T04:56:16.242Z,0
2018-03-02T04:56:48.280Z,0
2018-03-02T04:57:20.298Z,0
2018-03-02T04:57:52.355Z,0
2018-03-02T04:58:24.387Z,0
2018-03-02T04:58:56.424Z,0
2018-03-02T04:59:28.451Z,0
2018-03-02T05:00:00.486Z,0
2018-03-02T05:00:32.507Z,0
2018-03-02T05:01:04.543Z,0
2018-03-02T05:01:36.606Z,0
2018-03-02T05:02:08.636Z,0
2018-03-02T05:02:40.708Z,0
2018-03-02T05:03:12.716Z,0
2018-03-02T05:03:44.743Z,0
2018-03-02T05:04:16.742Z,0
2018-03-02T05:04:48.845Z,0
2018-03-02T05:05:20.961Z,0
2018-03-02T05:05:53.103Z,0
2018-03-02T05:06:25.137Z,0
2018-03-02T05:06:57.195Z,0
2018-03-02T05:07:29.371Z,0
2018-03-02T05:08:01.354Z,0
2018-03-02T05:08:33.426Z,0
2018-03-02T05:09:05.448Z,0
2018-03-02T05:09:37.475Z,0
2018-03-02T05:10:09.492Z,0
2018-03-02T05:10:41.500Z,0
2018-03-02T05:11:13.558Z,0
2018-03-02T05:11:45.595Z,0
2018-03-02T05:12:17.631Z,0
2018-03-02T05:12:49.632Z,0
2018-03-02T05:13:21.669Z,0
2018-03-02T05:13:53.670Z,0
2018-03-02T05:14:25.716Z,0
2018-03-02T05:14:57.802Z,0
2018-03-02T05:15:29.838Z,0
2018-03-02T05:16:01.827Z,0
2018-03-02T05:16:33.857Z,0
2018-03-02T05:17:05.890Z,0
2018-03-02T05:17:37.863Z,0
2018-03-02T05:18:09.892Z,0
2018-03-02T05:18:41.896Z,0
2018-03-02T05:19:13.938Z,0
2018-03-02T05:19:45.931Z,0
2018-03-02T05:20:17.992Z,0
2018-03-02T05:20:50.019Z,0
2018-03-02T05:21:22.017Z,0
2018-03-02T05:21:54.021Z,0
2018-03-02T05:22:26.050Z,0
2018-03-02T05:22:58.047Z,0
2018-03-02T05:23:30.067Z,0
2018-03-02T05:24:02.116Z,0
2018-03-02T05:24:34.133Z,0
2018-03-02T05:25:06.172Z,0
2018-03-02T05:25:38.196Z,0
2018-03-02T05:26:10.200Z,0
2018-03-02T05:26:42.231Z,0
2018-03-02T05:27:14.217Z,0
2018-03-02T05:27:46.235Z,0
2018-03-02T05:28:18.247Z,0
2018-03-02T05:28:50.293Z,0
2018-03-02T05:29:22.352Z,0
2018-03-02T05:29:54.357Z,0
2018-03-02T05:30:26.389Z,0
2018-03-02T05:30:58.399Z,0
2018-03-02T05:31:30.487Z,0
2018-03-02T05:32:02.565Z,0
2018-03-02T05:32:34.591Z,0
2018-03-02T05:33:06.634Z,0
2018-03-02T05:33:38.685Z,0
2018-03-02T05:34:10.785Z,0
2018-03-02T05:34:42.819Z,0
2018-03-02T05:35:14.870Z,0
2018-03-02T05:35:46.894Z,0
2018-03-02T05:36:18.990Z,0
2018-03-02T05:36:51.158Z,0
2018-03-02T05:37:23.304Z,0
2018-03-02T05:37:55.324Z,0
2018-03-02T05:38:27.361Z,0
2018-03-02T05:38:59.390Z,0
2018-03-02T05:39:31.383Z,0
2018-03-02T05:40:03.422Z,0
2018-03-02T05:40:35.468Z,0
2018-03-02T05:41:07.544Z,0
2018-03-02T05:41:39.536Z,0
2018-03-02T05:42:11.524Z,0
2018-03-02T05:42:43.565Z,0
2018-03-02T05:43:15.606Z,0
2018-03-02T05:43:47.644Z,0
2018-03-02T05:44:19.615Z,0
2018-03-02T05:44:51.599Z,4
2018-03-02T05:45:23.617Z,4
2018-03-02T05:45:55.695Z,0
2018-03-02T05:46:27.700Z,0
2018-03-02T05:46:59.752Z,0
2018-03-02T05:47:31.730Z,0
2018-03-02T05:48:03.747Z,4
2018-03-02T05:48:35.732Z,4
2018-03-02T05:49:07.763Z,4
2018-03-02T05:49:39.821Z,0
2018-03-02T05:50:11.878Z,4
2018-03-02T05:50:43.901Z,4
2018-03-02T05:51:15.945Z,0
2018-03-02T05:51:47.909Z,4
2018-03-02T05:52:20.044Z,4
2018-03-02T05:52:52.226Z,4
2018-03-02T05:53:24.240Z,4
2018-03-02T05:53:56.267Z,4
2018-03-02T05:54:28.384Z,8
2018-03-02T05:55:00.436Z,8
2018-03-02T05:55:32.475Z,8
2018-03-02T05:56:04.497Z,8
2018-03-02T05:56:36.505Z,8
2018-03-02T05:57:08.543Z,8
2018-03-02T05:57:40.597Z,12
2018-03-02T05:58:12.722Z,12
2018-03-02T05:58:44.831Z,12
2018-03-02T05:59:16.811Z,12
2018-03-02T05:59:48.865Z,12
2018-03-02T06:00:20.881Z,16
2018-03-02T06:00:52.899Z,16
2018-03-02T06:01:24.871Z,16
2018-03-02T06:01:57.784Z,20
2018-03-02T06:02:29.771Z,20
2018-03-02T06:03:01.825Z,24
2018-03-02T06:03:33.898Z,28
2018-03-02T06:04:05.962Z,28
2018-03-02T06:04:37.954Z,28
2018-03-02T06:05:09.947Z,32
2018-03-02T06:05:41.943Z,32
2018-03-02T06:06:13.996Z,36
2018-03-02T06:06:46.014Z,40
2018-03-02T06:07:18.063Z,40
2018-03-02T06:07:50.094Z,40
2018-03-02T06:08:22.132Z,44
2018-03-02T06:08:54.243Z,48
2018-03-02T06:09:26.291Z,52
2018-03-02T06:09:58.348Z,52
2018-03-02T06:10:30.361Z,56
2018-03-02T06:11:02.419Z,60
2018-03-02T06:11:34.439Z,64
2018-03-02T06:12:06.480Z,68
2018-03-02T06:12:38.574Z,68
2018-03-02T06:13:10.587Z,72
2018-03-02T06:13:42.712Z,80
2018-03-02T06:14:14.791Z,80
2018-03-02T06:14:46.797Z,84
2018-03-02T06:15:18.843Z,84
2018-03-02T06:15:50.882Z,92
2018-03-02T06:16:22.875Z,100
2018-03-02T06:16:54.917Z,100
2018-03-02T06:17:27.039Z,104
2018-03-02T06:17:59.062Z,108
2018-03-02T06:18:31.132Z,112
2018-03-02T06:19:03.154Z,120
2018-03-02T06:19:35.203Z,124
2018-03-02T06:20:07.205Z,128
2018-03-02T06:20:39.280Z,132
2018-03-02T06:21:11.384Z,136
2018-03-02T06:21:43.386Z,144
2018-03-02T06:22:15.533Z,148
2018-03-02T06:22:47.559Z,156
2018-03-02T06:23:19.906Z,160
2018-03-02T06:23:52.075Z,164
2018-03-02T06:24:24.099Z,168
2018-03-02T06:24:56.127Z,176
2018-03-02T06:25:28.113Z,180
2018-03-02T06:26:00.135Z,188
2018-03-02T06:26:32.216Z,196
2018-03-02T06:27:04.257Z,200
2018-03-02T06:27:36.262Z,208
2018-03-02T06:28:08.290Z,212
2018-03-02T06:28:40.323Z,220
2018-03-02T06:29:12.361Z,228
2018-03-02T06:29:44.384Z,232
2018-03-02T06:30:16.385Z,240
2018-03-02T06:30:48.375Z,244
2018-03-02T06:31:20.412Z,252
2018-03-02T06:31:52.469Z,264
2018-03-02T06:32:24.495Z,268
2018-03-02T06:32:56.501Z,280
2018-03-02T06:33:28.500Z,288
2018-03-02T06:34:00.516Z,292
2018-03-02T06:34:32.571Z,300
2018-03-02T06:35:04.665Z,308
2018-03-02T06:35:36.676Z,316
2018-03-02T06:36:08.690Z,328
2018-03-02T06:36:40.805Z,336
2018-03-02T06:37:12.828Z,340
2018-03-02T06:37:44.845Z,352
2018-03-02T06:38:16.851Z,360
2018-03-02T06:38:48.955Z,368
2018-03-02T06:39:20.995Z,372
2018-03-02T06:39:53.032Z,384
2018-03-02T06:40:25.169Z,392
2018-03-02T06:40:57.181Z,404
2018-03-02T06:41:29.224Z,412
2018-03-02T06:42:01.272Z,424
2018-03-02T06:42:33.339Z,432
2018-03-02T06:43:05.389Z,440
2018-03-02T06:43:37.417Z,452
2018-03-02T06:44:09.442Z,464
2018-03-02T06:44:41.481Z,472
2018-03-02T06:45:13.598Z,480
2018-03-02T06:45:45.596Z,488
2018-03-02T06:46:17.702Z,500
2018-03-02T06:46:49.790Z,508
2018-03-02T06:47:21.814Z,512
2018-03-02T06:47:53.879Z,524
2018-03-02T06:48:25.873Z,532
2018-03-02T06:48:57.967Z,540
2018-03-02T06:49:30.391Z,544
2018-03-02T06:50:02.971Z,556
2018-03-02T06:50:35.211Z,560
2018-03-02T06:51:07.258Z,572
2018-03-02T06:51:39.255Z,584
2018-03-02T06:52:11.356Z,596
2018-03-02T06:52:43.392Z,604
2018-03-02T06:53:15.445Z,612
2018-03-02T06:53:47.469Z,624
2018-03-02T06:54:19.505Z,628
2018-03-02T06:54:51.615Z,632
2018-03-02T06:55:23.665Z,640
2018-03-02T06:55:55.710Z,640
2018-03-02T06:56:27.731Z,644
2018-03-02T06:56:59.774Z,648
2018-03-02T06:57:31.818Z,652
2018-03-02T06:58:03.802Z,660
2018-03-02T06:58:35.846Z,672
2018-03-02T06:59:07.942Z,680
2018-03-02T06:59:39.970Z,684
2018-03-02T07:00:12.000Z,696
2018-03-02T07:00:44.145Z,708
2018-03-02T07:01:16.195Z,712
2018-03-02T07:01:48.213Z,724
2018-03-02T07:02:20.234Z,736
2018-03-02T07:02:52.282Z,748
2018-03-02T07:03:24.299Z,768
2018-03-02T07:03:56.285Z,792
2018-03-02T07:04:28.300Z,828
2018-03-02T07:05:00.333Z,872
2018-03-02T07:05:32.485Z,908
2018-03-02T07:06:04.572Z,940
2018-03-02T07:06:37.376Z,956
2018-03-02T07:07:09.403Z,964
2018-03-02T07:07:41.391Z,988
2018-03-02T07:08:13.402Z,1008
2018-03-02T07:08:45.360Z,1016
2018-03-02T07:09:17.373Z,1036
2018-03-02T07:09:49.511Z,1044
2018-03-02T07:10:21.522Z,1044
2018-03-02T07:10:53.629Z,1032
2018-03-02T07:11:25.684Z,1032
2018-03-02T07:11:57.727Z,1036
2018-03-02T07:12:29.777Z,1040
2018-03-02T07:13:01.790Z,1056
2018-03-02T07:13:33.802Z,1080
2018-03-02T07:14:05.853Z,1112
2018-03-02T07:14:37.952Z,1168
2018-03-02T07:15:10.017Z,1204
2018-03-02T07:15:42.063Z,1232
2018-03-02T07:16:14.104Z,1240
2018-03-02T07:16:46.146Z,1252
2018-03-02T07:17:18.288Z,1256
2018-03-02T07:17:50.246Z,1256
2018-03-02T07:18:22.246Z,1244
2018-03-02T07:18:54.267Z,1252
2018-03-02T07:19:26.319Z,1224
2018-03-02T07:19:58.478Z,1228
2018-03-02T07:20:30.517Z,1216
2018-03-02T07:21:02.519Z,1196
2018-03-02T07:21:34.589Z,1168
2018-03-02T07:22:06.803Z,1168
2018-03-02T07:22:38.825Z,1156
2018-03-02T07:23:10.841Z,1172
2018-03-02T07:23:42.845Z,1180
2018-03-02T07:24:14.885Z,1172
2018-03-02T07:24:46.886Z,1176
2018-03-02T07:25:18.923Z,1152
2018-03-02T07:25:50.928Z,1152
2018-03-02T07:26:22.965Z,1156
2018-03-02T07:26:54.963Z,1156
2018-03-02T07:27:26.955Z,1180
2018-03-02T07:27:58.982Z,1180
2018-03-02T07:28:30.979Z,1192
2018-03-02T07:29:03.005Z,1200
2018-03-02T07:29:35.064Z,1200
2018-03-02T07:30:07.095Z,1208
2018-03-02T07:30:39.086Z,1236
2018-03-02T07:31:11.108Z,1260
2018-03-02T07:31:43.241Z,1264
2018-03-02T07:32:15.305Z,1276
2018-03-02T07:32:47.367Z,1276
2018-03-02T07:33:19.401Z,1288
2018-03-02T07:33:51.459Z,1304
2018-03-02T07:34:23.553Z,1328
2018-03-02T07:34:55.546Z,1392
2018-03-02T07:35:27.581Z,1436
2018-03-02T07:35:59.596Z,1448
2018-03-02T07:36:31.687Z,1456
2018-03-02T07:37:03.735Z,1460
2018-03-02T07:37:35.719Z,1480
2018-03-02T07:38:07.764Z,1520
2018-03-02T07:38:39.865Z,1556
2018-03-02T07:39:11.910Z,1584
2018-03-02T07:39:43.951Z,1632
2018-03-02T07:40:16.482Z,1676
2018-03-02T07:40:48.504Z,1704
2018-03-02T07:41:20.572Z,1740
2018-03-02T07:41:52.651Z,1792
2018-03-02T07:42:24.760Z,1820
2018-03-02T07:42:56.757Z,1860
2018-03-02T07:43:28.777Z,1884
2018-03-02T07:44:00.796Z,1892
2018-03-02T07:44:32.821Z,1916
2018-03-02T07:45:05.666Z,1920